createdAt,value
2023-04-24T00:02:28.505Z,6.49
2023-04-24T00:05:18.340Z,6.46
2023-04-24T00:08:03.773Z,6.42
2023-04-24T00:10:49.287Z,6.39
2023-04-24T00:13:34.384Z,6.36
2023-04-24T00:16:20.053Z,6.31
2023-04-24T00:19:06.957Z,6.24
2023-04-24T00:21:52.484Z,6.22
2023-04-24T00:24:37.759Z,6.19
2023-04-24T00:27:23.133Z,6.17
2023-04-24T00:30:09.069Z,6.13
2023-04-24T00:32:54.460Z,6.09
2023-04-24T00:35:39.774Z,6.05
2023-04-24T00:38:25.077Z,5.98
2023-04-24T00:41:10.449Z,5.94
2023-04-24T00:43:55.804Z,5.91
2023-04-24T00:46:41.609Z,5.88
2023-04-24T00:49:27.120Z,5.85
2023-04-24T00:52:13.520Z,5.83
2023-04-24T00:54:58.776Z,5.78
2023-04-24T00:57:45.047Z,5.73
2023-04-24T01:00:31.090Z,5.71
2023-04-24T01:03:16.689Z,5.70
2023-04-24T01:06:02.469Z,5.68
2023-04-24T01:08:48.971Z,5.65
2023-04-24T01:11:34.393Z,5.61
2023-04-24T01:14:19.574Z,5.56
2023-04-24T01:17:05.086Z,5.57
2023-04-24T01:19:50.565Z,5.52
2023-04-24T01:22:35.934Z,5.51
2023-04-24T01:25:21.560Z,5.51
2023-04-24T01:28:06.666Z,5.53
2023-04-24T01:30:52.092Z,5.54
2023-04-24T01:33:37.285Z,5.51
2023-04-24T01:36:23.784Z,5.46
2023-04-24T01:39:10.865Z,5.42
2023-04-24T01:41:57.275Z,5.38
2023-04-24T01:44:43.065Z,5.36
2023-04-24T01:47:29.322Z,5.31
2023-04-24T01:50:14.452Z,5.26
2023-04-24T01:52:59.786Z,5.25
2023-04-24T01:55:44.974Z,5.20
2023-04-24T01:58:30.403Z,5.17
2023-04-24T02:01:22.190Z,5.12
2023-04-24T02:04:09.070Z,5.16
2023-04-24T02:06:54.514Z,5.13
2023-04-24T02:09:39.813Z,5.07
2023-04-24T02:12:25.276Z,5.06
2023-04-24T02:15:11.201Z,5.03
2023-04-24T02:17:56.651Z,4.98
2023-04-24T02:20:41.982Z,4.95
2023-04-24T02:23:28.716Z,4.92
2023-04-24T02:26:14.124Z,4.91
2023-04-24T02:28:59.345Z,4.88
2023-04-24T02:31:44.748Z,4.85
2023-04-24T02:34:30.068Z,4.80
2023-04-24T02:37:15.406Z,4.77
2023-04-24T02:40:00.643Z,4.74
2023-04-24T02:42:46.139Z,4.72
2023-04-24T02:45:31.484Z,4.70
2023-04-24T02:48:16.714Z,4.66
2023-04-24T02:51:02.021Z,4.63
2023-04-24T02:53:47.200Z,4.62
2023-04-24T02:56:32.557Z,4.55
2023-04-24T02:59:17.910Z,4.50
2023-04-24T03:02:03.205Z,4.48
2023-04-24T03:04:51.428Z,4.46
2023-04-24T03:07:36.584Z,4.41
2023-04-24T03:10:23.812Z,4.40
2023-04-24T03:13:09.381Z,4.37
2023-04-24T03:15:55.212Z,4.35
2023-04-24T03:18:40.465Z,4.35
2023-04-24T03:21:25.951Z,4.34
2023-04-24T03:24:11.244Z,4.33
2023-04-24T03:26:57.916Z,4.32
2023-04-24T03:29:43.615Z,4.32
2023-04-24T03:32:29.334Z,4.33
2023-04-24T03:35:14.991Z,4.29
2023-04-24T03:38:00.266Z,4.28
2023-04-24T03:40:45.752Z,4.27
2023-04-24T03:43:30.870Z,4.24
2023-04-24T03:46:16.456Z,4.26
2023-04-24T03:49:01.795Z,4.26
2023-04-24T03:51:47.082Z,4.25
2023-04-24T03:54:32.535Z,4.22
2023-04-24T03:57:17.809Z,4.26
2023-04-24T04:00:05.227Z,4.27
2023-04-24T04:02:50.641Z,4.28
2023-04-24T04:05:35.872Z,4.26
2023-04-24T04:08:21.311Z,4.27
2023-04-24T04:11:06.585Z,4.28
2023-04-24T04:13:52.105Z,4.31
2023-04-24T04:16:37.784Z,4.35
2023-04-24T04:19:22.880Z,4.38
2023-04-24T04:22:09.130Z,4.40
2023-04-24T04:24:54.045Z,4.45
2023-04-24T04:27:39.920Z,4.47
2023-04-24T04:30:25.193Z,4.48
2023-04-24T04:33:11.816Z,4.52
2023-04-24T04:35:57.864Z,4.59
2023-04-24T04:38:44.125Z,4.60
2023-04-24T04:41:29.199Z,4.65
2023-04-24T04:44:15.110Z,4.69
2023-04-24T04:47:01.411Z,4.76
2023-04-24T04:49:46.926Z,4.81
2023-04-24T04:52:32.454Z,4.87
2023-04-24T04:55:17.745Z,4.95
2023-04-24T04:58:03.838Z,5.00
2023-04-24T05:00:49.618Z,5.07
2023-04-24T05:03:35.052Z,5.11
2023-04-24T05:06:21.604Z,5.19
2023-04-24T05:09:08.572Z,5.28
2023-04-24T05:11:54.459Z,5.36
2023-04-24T05:14:39.662Z,5.43
2023-04-24T05:17:25.085Z,5.49
2023-04-24T05:20:10.862Z,5.57
2023-04-24T05:22:56.445Z,5.66
2023-04-24T05:25:42.449Z,5.75
2023-04-24T05:28:29.574Z,5.84
2023-04-24T05:31:14.997Z,5.94
2023-04-24T05:34:00.455Z,6.04
2023-04-24T05:36:45.677Z,6.14
2023-04-24T05:39:30.905Z,6.24
2023-04-24T05:42:16.350Z,6.35
2023-04-24T05:45:01.745Z,6.46
2023-04-24T05:47:46.822Z,6.57
2023-04-24T05:50:32.511Z,6.69
2023-04-24T05:53:18.907Z,6.79
2023-04-24T05:56:04.180Z,6.90
2023-04-24T05:58:49.362Z,7.08
2023-04-24T06:01:34.823Z,7.29
2023-04-24T06:04:20.638Z,7.47
2023-04-24T06:07:06.339Z,7.69
2023-04-24T06:09:51.575Z,8.01
2023-04-24T06:12:37.609Z,8.23
2023-04-24T06:15:22.980Z,8.69
2023-04-24T06:18:08.764Z,9.04
2023-04-24T06:20:54.191Z,9.36
2023-04-24T06:23:39.414Z,9.71
2023-04-24T06:26:26.177Z,9.92
2023-04-24T06:29:11.710Z,10.06
2023-04-24T06:31:56.996Z,10.26
2023-04-24T06:34:43.324Z,10.55
2023-04-24T06:37:28.759Z,10.76
2023-04-24T06:40:14.298Z,10.94
2023-04-24T06:43:01.099Z,11.14
2023-04-24T06:45:46.375Z,11.19
2023-04-24T06:48:31.847Z,11.25
2023-04-24T06:51:18.643Z,11.45
2023-04-24T06:54:04.046Z,11.61
2023-04-24T06:56:50.810Z,11.72
2023-04-24T06:59:35.684Z,11.72
2023-04-24T07:02:21.386Z,11.79
2023-04-24T07:05:07.902Z,11.90
2023-04-24T07:07:53.694Z,11.94
2023-04-24T07:10:38.752Z,12.03
2023-04-24T07:13:24.665Z,12.09
2023-04-24T07:16:10.708Z,12.23
2023-04-24T07:18:55.834Z,12.27
2023-04-24T07:21:41.401Z,12.40
2023-04-24T07:24:27.023Z,12.56
2023-04-24T07:27:12.955Z,12.66
2023-04-24T07:29:58.353Z,12.77
2023-04-24T07:32:43.741Z,12.86
2023-04-24T07:35:28.907Z,12.93
2023-04-24T07:38:14.150Z,13.05
2023-04-24T07:40:59.573Z,13.15
2023-04-24T07:43:45.426Z,13.28
2023-04-24T07:46:31.617Z,13.42
2023-04-24T07:49:18.484Z,13.54
2023-04-24T07:52:05.182Z,13.69
2023-04-24T07:54:51.225Z,13.78
2023-04-24T07:57:37.317Z,13.85
2023-04-24T08:00:22.563Z,13.95
2023-04-24T08:03:08.086Z,14.01
2023-04-24T08:05:53.800Z,14.12
2023-04-24T08:08:39.384Z,14.21
2023-04-24T08:11:25.293Z,14.38
2023-04-24T08:14:10.733Z,14.47
2023-04-24T08:17:01.388Z,14.63
2023-04-24T08:19:49.280Z,14.68
2023-04-24T08:22:34.766Z,14.78
2023-04-24T08:25:20.267Z,14.86
2023-04-24T08:28:07.486Z,14.99
2023-04-24T08:30:55.984Z,15.18
2023-04-24T08:33:42.038Z,15.26
2023-04-24T08:36:36.041Z,15.36
2023-04-24T08:39:25.071Z,15.38
2023-04-24T08:42:12.252Z,15.40
2023-04-24T08:44:58.960Z,15.49
2023-04-24T08:47:45.221Z,15.61
2023-04-24T08:50:30.923Z,15.75
2023-04-24T08:53:16.859Z,15.92
2023-04-24T08:56:03.280Z,16.04
2023-04-24T08:58:49.191Z,16.13
2023-04-24T09:01:36.134Z,16.17
2023-04-24T09:04:23.274Z,16.21
2023-04-24T09:07:10.610Z,16.34
2023-04-24T09:09:56.082Z,16.41
2023-04-24T09:12:42.425Z,16.40
2023-04-24T09:15:27.735Z,16.43
2023-04-24T09:18:12.984Z,16.58
2023-04-24T09:21:04.061Z,16.68
2023-04-24T09:23:58.843Z,16.73
2023-04-24T09:26:44.299Z,16.79
2023-04-24T09:29:29.991Z,16.88
2023-04-24T09:32:23.580Z,16.92
2023-04-24T09:35:14.462Z,16.97
2023-04-24T09:37:59.502Z,17.00
2023-04-24T09:40:44.856Z,17.04
2023-04-24T09:43:30.917Z,17.01
2023-04-24T09:46:19.427Z,17.03
2023-04-24T09:49:13.496Z,16.99
2023-04-24T09:52:10.880Z,16.95
2023-04-24T09:54:56.242Z,16.99
2023-04-24T09:57:55.859Z,17.13
2023-04-24T10:00:41.347Z,17.10
2023-04-24T10:03:28.114Z,17.02
2023-04-24T10:06:14.014Z,17.00
2023-04-24T10:08:59.975Z,16.97
2023-04-24T10:11:47.000Z,16.89
2023-04-24T10:14:32.486Z,16.85
2023-04-24T10:17:18.384Z,16.88
2023-04-24T10:20:03.679Z,16.86
2023-04-24T10:22:51.296Z,16.84
2023-04-24T10:25:40.477Z,16.84
2023-04-24T10:28:26.015Z,16.87
2023-04-24T10:31:12.723Z,16.95
2023-04-24T10:33:59.570Z,17.01
2023-04-24T10:36:49.209Z,16.95
2023-04-24T10:39:34.646Z,17.00
2023-04-24T10:42:20.691Z,16.98
2023-04-24T10:45:07.002Z,16.99
2023-04-24T10:48:00.364Z,16.90
2023-04-24T10:50:53.680Z,16.81
2023-04-24T10:53:39.160Z,16.75
2023-04-24T10:56:24.508Z,16.72
2023-04-24T10:59:10.834Z,16.69
2023-04-24T11:01:56.572Z,16.58
2023-04-24T11:04:43.931Z,16.52
2023-04-24T11:07:29.358Z,16.53
2023-04-24T11:10:27.450Z,16.44
2023-04-24T11:13:15.859Z,16.44
2023-04-24T11:16:39.739Z,16.42
2023-04-24T11:19:27.199Z,16.44
2023-04-24T11:22:18.054Z,16.42
2023-04-24T11:25:05.325Z,16.49
2023-04-24T11:27:51.529Z,16.46
2023-04-24T11:30:41.092Z,16.40
2023-04-24T11:33:26.591Z,16.38
2023-04-24T11:36:12.079Z,16.34
2023-04-24T11:38:58.437Z,16.31
2023-04-24T11:41:43.860Z,16.26
2023-04-24T11:44:29.501Z,16.25
2023-04-24T11:47:14.802Z,16.28
2023-04-24T11:50:01.940Z,16.29
2023-04-24T11:52:49.860Z,16.32
2023-04-24T11:55:34.999Z,16.30
2023-04-24T11:58:22.787Z,16.33
2023-04-24T12:01:08.097Z,16.29
2023-04-24T12:04:01.065Z,16.25
2023-04-24T12:07:03.487Z,16.27
2023-04-24T12:09:52.622Z,16.18
2023-04-24T12:12:38.296Z,16.17
2023-04-24T12:15:24.432Z,16.16
2023-04-24T12:18:14.005Z,16.14
2023-04-24T12:21:19.151Z,16.19
2023-04-24T12:24:07.672Z,16.10
2023-04-24T12:26:54.546Z,16.09
2023-04-24T12:29:58.750Z,16.05
2023-04-24T12:32:49.083Z,15.86
2023-04-24T12:35:35.158Z,15.80
2023-04-24T12:38:25.435Z,15.77
2023-04-24T12:41:12.454Z,15.73
2023-04-24T12:43:57.576Z,15.71
2023-04-24T12:46:42.810Z,15.75
2023-04-24T12:49:29.180Z,15.79
2023-04-24T12:52:14.447Z,15.78
2023-04-24T12:55:01.617Z,15.79
2023-04-24T12:57:46.667Z,15.72
2023-04-24T13:00:32.166Z,15.68
2023-04-24T13:03:17.506Z,15.70
2023-04-24T13:06:02.894Z,15.71
2023-04-24T13:08:49.516Z,15.68
2023-04-24T13:11:34.419Z,15.56
2023-04-24T13:14:19.734Z,15.57
2023-04-24T13:17:05.986Z,15.49
2023-04-24T13:19:52.670Z,15.48
2023-04-24T13:22:38.477Z,15.47
2023-04-24T13:25:26.025Z,15.43
2023-04-24T13:28:11.232Z,15.36
2023-04-24T13:30:56.583Z,15.34
2023-04-24T13:33:42.416Z,15.40
2023-04-24T13:36:27.899Z,15.41
2023-04-24T13:39:13.670Z,15.35
2023-04-24T13:41:59.331Z,15.30
2023-04-24T13:44:44.511Z,15.26
2023-04-24T13:47:29.985Z,15.20
2023-04-24T13:50:16.090Z,15.13
2023-04-24T13:53:02.961Z,14.96
2023-04-24T13:55:48.748Z,15.01
2023-04-24T13:58:33.747Z,14.98
2023-04-24T14:01:19.310Z,14.92
2023-04-24T14:04:05.014Z,14.88
2023-04-24T14:06:50.467Z,14.85
2023-04-24T14:09:35.841Z,14.86
2023-04-24T14:12:22.083Z,14.87
2023-04-24T14:15:07.854Z,14.84
2023-04-24T14:17:52.892Z,14.75
2023-04-24T14:20:38.188Z,14.69
2023-04-24T14:23:23.622Z,14.62
2023-04-24T14:26:08.923Z,14.59
2023-04-24T14:29:01.049Z,14.57
2023-04-24T14:31:56.845Z,14.49
2023-04-24T14:34:42.670Z,14.30
2023-04-24T14:37:28.029Z,14.09
2023-04-24T14:40:29.770Z,13.93
2023-04-24T14:43:18.535Z,13.86
2023-04-24T14:46:05.781Z,13.86
2023-04-24T14:48:50.887Z,13.81
2023-04-24T14:51:39.319Z,13.86
2023-04-24T14:54:24.755Z,13.84
2023-04-24T14:57:10.029Z,13.91
2023-04-24T14:59:55.208Z,13.90
2023-04-24T15:02:43.293Z,13.93
2023-04-24T15:05:28.866Z,13.96
2023-04-24T15:08:15.006Z,13.98
2023-04-24T15:11:00.125Z,14.02
2023-04-24T15:13:48.229Z,14.02
2023-04-24T15:16:33.763Z,14.00
2023-04-24T15:19:18.686Z,13.74
2023-04-24T15:22:04.026Z,13.68
2023-04-24T15:24:49.543Z,13.69
2023-04-24T15:27:46.878Z,13.62
2023-04-24T15:30:32.392Z,13.57
2023-04-24T15:33:17.568Z,13.47
2023-04-24T15:36:02.692Z,13.39
2023-04-24T15:38:48.791Z,13.27
2023-04-24T15:41:33.887Z,13.24
2023-04-24T15:44:19.493Z,13.17
2023-04-24T15:47:04.998Z,13.07
2023-04-24T15:49:50.335Z,13.13
2023-04-24T15:52:36.056Z,13.22
2023-04-24T15:55:21.526Z,13.19
2023-04-24T15:58:06.538Z,13.17
2023-04-24T16:00:51.765Z,13.15
2023-04-24T16:03:37.136Z,13.04
2023-04-24T16:06:22.677Z,13.08
2023-04-24T16:09:08.765Z,13.14
2023-04-24T16:11:54.003Z,13.16
2023-04-24T16:14:39.709Z,13.10
2023-04-24T16:17:25.006Z,13.12
2023-04-24T16:20:10.903Z,13.03
2023-04-24T16:22:56.138Z,12.99
2023-04-24T16:25:41.192Z,13.03
2023-04-24T16:28:27.789Z,13.04
2023-04-24T16:31:12.867Z,13.06
2023-04-24T16:33:57.873Z,13.05
2023-04-24T16:36:43.389Z,13.05
2023-04-24T16:39:28.531Z,13.04
2023-04-24T16:42:14.816Z,13.03
2023-04-24T16:44:59.823Z,13.01
2023-04-24T16:47:45.171Z,13.00
2023-04-24T16:50:30.027Z,12.97
2023-04-24T16:53:15.489Z,12.95
2023-04-24T16:56:00.726Z,12.91
2023-04-24T16:58:46.025Z,12.89
2023-04-24T17:01:31.195Z,12.73
2023-04-24T17:04:16.559Z,12.68
2023-04-24T17:07:02.088Z,12.68
2023-04-24T17:09:47.549Z,12.67
2023-04-24T17:12:32.888Z,12.62
2023-04-24T17:15:18.009Z,12.62
2023-04-24T17:18:03.520Z,12.62
2023-04-24T17:20:48.858Z,12.59
2023-04-24T17:23:34.190Z,12.59
2023-04-24T17:26:19.459Z,12.57
2023-04-24T17:29:04.752Z,12.56
2023-04-24T17:31:49.860Z,12.55
2023-04-24T17:34:35.225Z,12.53
2023-04-24T17:37:23.202Z,12.51
2023-04-24T17:40:09.063Z,12.50
2023-04-24T17:42:54.700Z,12.48
2023-04-24T17:45:39.679Z,12.48
2023-04-24T17:48:25.287Z,12.45
2023-04-24T17:51:10.609Z,12.44
2023-04-24T17:53:55.556Z,12.41
2023-04-24T17:56:41.197Z,12.39
2023-04-24T17:59:26.751Z,12.36
2023-04-24T18:02:12.184Z,12.30
2023-04-24T18:04:57.764Z,12.24
2023-04-24T18:07:43.100Z,12.24
2023-04-24T18:10:31.616Z,12.24
2023-04-24T18:13:16.909Z,12.22
2023-04-24T18:16:02.237Z,12.22
2023-04-24T18:18:47.501Z,12.23
2023-04-24T18:21:33.137Z,12.18
2023-04-24T18:24:19.041Z,12.17
2023-04-24T18:27:04.254Z,12.14
2023-04-24T18:29:49.604Z,12.14
2023-04-24T18:32:35.995Z,12.11
2023-04-24T18:35:22.089Z,12.09
2023-04-24T18:38:07.491Z,12.09
2023-04-24T18:40:52.461Z,12.07
2023-04-24T18:43:37.820Z,12.06
2023-04-24T18:46:23.059Z,12.02
2023-04-24T18:49:08.450Z,12.02
2023-04-24T18:51:54.769Z,12.01
2023-04-24T18:54:41.121Z,11.99
2023-04-24T18:57:26.815Z,11.98
2023-04-24T19:00:12.422Z,11.97
2023-04-24T19:02:57.652Z,11.91
2023-04-24T19:05:42.775Z,11.90
2023-04-24T19:08:27.753Z,11.91
2023-04-24T19:11:13.337Z,11.92
2023-04-24T19:14:04.145Z,11.89
2023-04-24T19:16:50.097Z,11.83
2023-04-24T19:19:36.189Z,11.76
2023-04-24T19:22:21.638Z,11.78
2023-04-24T19:25:07.438Z,11.81
2023-04-24T19:27:52.642Z,11.80
2023-04-24T19:30:38.528Z,11.81
2023-04-24T19:33:23.641Z,11.80
2023-04-24T19:36:09.270Z,11.81
2023-04-24T19:38:55.169Z,11.80
2023-04-24T19:41:40.263Z,11.80
2023-04-24T19:44:25.697Z,11.79
2023-04-24T19:47:10.875Z,11.77
2023-04-24T19:49:56.687Z,11.71
2023-04-24T19:52:41.840Z,11.72
2023-04-24T19:55:26.977Z,11.75
2023-04-24T19:58:12.098Z,11.76
2023-04-24T20:00:58.216Z,11.76
2023-04-24T20:03:43.703Z,11.77
2023-04-24T20:06:29.094Z,11.76
2023-04-24T20:09:14.644Z,11.76
2023-04-24T20:12:00.164Z,11.76
2023-04-24T20:14:45.088Z,11.74
2023-04-24T20:17:30.873Z,11.73
2023-04-24T20:20:15.914Z,11.73
2023-04-24T20:23:01.281Z,11.73
2023-04-24T20:25:46.567Z,11.71
2023-04-24T20:28:31.985Z,11.71
2023-04-24T20:31:17.706Z,11.71
2023-04-24T20:34:03.526Z,11.69
2023-04-24T20:36:49.756Z,11.68
2023-04-24T20:39:34.971Z,11.68
2023-04-24T20:42:20.609Z,11.68
2023-04-24T20:45:06.641Z,11.68
2023-04-24T20:47:52.046Z,11.67
2023-04-24T20:50:41.891Z,11.68
2023-04-24T20:53:27.103Z,11.67
2023-04-24T20:56:12.445Z,11.67
2023-04-24T20:58:57.838Z,11.65
2023-04-24T21:01:44.858Z,11.66
2023-04-24T21:04:32.254Z,11.65
2023-04-24T21:07:17.835Z,11.63
2023-04-24T21:10:03.013Z,11.62
2023-04-24T21:12:48.492Z,11.63
2023-04-24T21:15:33.756Z,11.62
2023-04-24T21:18:19.034Z,11.60
2023-04-24T21:21:04.516Z,11.62
2023-04-24T21:23:49.919Z,11.62
2023-04-24T21:26:35.663Z,11.62
2023-04-24T21:29:21.206Z,11.60
2023-04-24T21:32:06.437Z,11.61
2023-04-24T21:34:51.663Z,11.60
2023-04-24T21:37:39.207Z,11.59
2023-04-24T21:40:24.905Z,11.56
2023-04-24T21:43:10.146Z,11.55
2023-04-24T21:45:56.719Z,11.54
2023-04-24T21:48:42.268Z,11.53
2023-04-24T21:51:28.442Z,11.54
2023-04-24T21:54:14.199Z,11.53
2023-04-24T21:56:59.629Z,11.53
2023-04-24T21:59:45.769Z,11.52
2023-04-24T22:03:27.468Z,11.50
2023-04-24T22:06:12.649Z,11.49
2023-04-24T22:08:57.808Z,11.47
2023-04-24T22:11:43.014Z,11.43
2023-04-24T22:14:28.372Z,11.41
2023-04-24T22:17:15.373Z,11.43
2023-04-24T22:20:01.559Z,11.44
2023-04-24T22:22:47.398Z,11.42
2023-04-24T22:25:32.766Z,11.41
2023-04-24T22:28:17.877Z,11.42
2023-04-24T22:31:03.548Z,11.40
2023-04-24T22:33:49.516Z,11.38
2023-04-24T22:36:34.884Z,11.36
2023-04-24T22:39:20.150Z,11.35
2023-04-24T22:42:05.656Z,11.34
2023-04-24T22:44:51.463Z,11.34
2023-04-24T22:47:36.832Z,11.33
2023-04-24T22:50:22.675Z,11.30
2023-04-24T22:53:08.039Z,11.30
2023-04-24T22:55:53.372Z,11.31
2023-04-24T22:58:38.670Z,11.30
2023-04-24T23:01:24.726Z,11.30
2023-04-24T23:04:09.894Z,11.30
2023-04-24T23:06:55.255Z,11.29
2023-04-24T23:09:40.699Z,11.29
2023-04-24T23:12:25.929Z,11.29
2023-04-24T23:15:14.642Z,11.29
2023-04-24T23:17:59.669Z,11.29
2023-04-24T23:20:46.084Z,11.29
2023-04-24T23:23:31.481Z,11.27
2023-04-24T23:26:16.783Z,11.27
2023-04-24T23:29:01.969Z,11.27
2023-04-24T23:31:47.303Z,11.27
2023-04-24T23:34:34.006Z,11.27
2023-04-24T23:37:19.162Z,11.28
2023-04-24T23:40:11.677Z,11.28
2023-04-24T23:43:06.200Z,11.28
2023-04-24T23:45:52.191Z,11.28
2023-04-24T23:48:37.504Z,11.27
2023-04-24T23:51:23.062Z,11.28
2023-04-24T23:54:08.050Z,11.27
2023-04-24T23:56:53.290Z,11.28
2023-04-24T23:59:38.664Z,11.27
